logo
Search for airport 
image banner adimage banner adimage banner ad
image banner ad

LZPP - Piestany

Located in Piestany, Slovakia

ICAO - LZPP, IATA - PZY

Data provided by Airmate  

General information

Coordinates: N48°37'30" E17°49'43"
Elevation is 544 feet MSL.
Magnetic variation is 5.0356° East
View others Airports in Trnava

Operational data

Special qualification required
Current time UTC:
Current local time:
Weather
METAR: LZPP 140030Z AUTO 36003KT 9999 NCD 09/08 Q1022
TAF: TAF LZPP 131715Z 1318/1403 28007KT CAVOK BECMG 1320/1322 VRB02KT
View NOTAMs / SUP AIP / TFR affecting this airport [VIEW]
Communications frequencies: [VIEW]

Runways:

RWY identifierQFULength (ft)Width (ft)SurfaceLDA (ft)
0114°656298CONC+ASPH6562
19194°656298CONC+ASPH6562

Airport contact information

Address: Piestany Slovakia

Other aviation service providers

Flight schools

Utair Europe

Utair Europe

Satellite view of LZPP